Accueil
METAR-TAF:

METAR-TAF

Aéroports :

Aéroport international de Shanghai-Pudong

Shanghai-Pudong, Chine

latitude: 31-07N, longitude: 121-46E, altitude: 4 m

Observation

Le bulletin a été fait il y a 25 minutes, à 11:30 UTC
Vent 14 kt de nord
Température 5°C
Humidité 65%
Pression 1031 hPa
Visibilité 10 km ou plus
pas de nuages en-dessous de 1500 mètres et pas de cumulonimbus.

METAR: ZSPD 201130Z 35007MPS CAVOK 05/M01 Q1031 NOSIG

Heure: 19:55 (11:55 UTC)

Prévision

Le bulletin a été fait il y a 2 heures et 35 minutes, à 09:20 UTC
Prévision valable du 20 à 12 UTC au 21 à 12 UTC
Vent 10 kt de nord/nord-ouest
Visibilité: 5000 m
Nuages épars à une hauteur de 1500 ft
brume sèche

TAF: ZSPD 200920Z 2012/2112 33005MPS 5000 HZ SCT015 TX08/2106Z TN00/2021Z

Observations et prévisions météorologiques de plus de 4000 aéroports (messages METAR et TAF).

Les stations disponibles sont représentées par des disques jaunes et rouges sur la carte.

Passer la souris dessus pour voir le nom de la station.

Cliquer dessus pour voir les observations et prévisions météorologiques.

Pour changer de carte: cliquez sur les boutons verts avec une croix noire pour zoomer, sur le bouton vert avec un tiret pour effectuer un zoom arrière, ou sur les flèches vertes pour les cartes adjacentes.


METAR-TAF: